Time;durP1;ratioP1;P1;durP2;ratioP2;P2;SDS_P1;SDS_P2;PMS_P1;PMS_P2;Temp;Humidity;BMP_temperature;BMP_pressure;BME280_temperature;BME280_humidity;BME280_pressure;Samples;Min_cycle;Max_cycle;Signal;HPM_P1;HPM_P2
2021/11/21 00:00:15;;;;;;;46.83;29.52;;;8.60;99.90;;;;;;5009060;28;20044;-62
2021/11/21 00:02:41;;;;;;;50.10;32.03;;;8.60;99.90;;;;;;5008484;28;20041;-62
2021/11/21 00:05:07;;;;;;;50.15;32.92;;;8.60;99.90;;;;;;4991182;28;20125;-62
2021/11/21 00:07:33;;;;;;;50.00;32.20;;;8.60;99.90;;;;;;5009955;28;20132;-62
2021/11/21 00:09:59;;;;;;;42.67;29.52;;;8.60;99.90;;;;;;4991177;28;20022;-62
2021/11/21 00:12:24;;;;;;;48.67;31.00;;;8.60;99.90;;;;;;4987587;28;20091;-62
2021/11/21 00:14:50;;;;;;;43.28;29.13;;;8.60;99.90;;;;;;4990721;28;20040;-62
2021/11/21 00:17:16;;;;;;;42.42;29.17;;;8.60;99.90;;;;;;4990454;28;20034;-62
2021/11/21 00:19:41;;;;;;;48.03;31.05;;;8.60;99.90;;;;;;4990681;28;20101;-62
2021/11/21 00:22:12;;;;;;;47.20;32.50;;;8.50;99.90;;;;;;4990806;28;20038;-63
2021/11/21 00:24:39;;;;;;;45.33;29.83;;;8.50;99.90;;;;;;4992171;28;20026;-62
2021/11/21 00:27:05;;;;;;;43.83;28.30;;;8.50;99.90;;;;;;4993049;28;20022;-62
2021/11/21 00:29:31;;;;;;;46.10;31.00;;;8.60;99.90;;;;;;4993850;28;20065;-62
2021/11/21 00:32:14;;;;;;;41.65;28.33;;;8.60;99.90;;;;;;4994122;28;20451;-62
2021/11/21 00:34:43;;;;;;;49.10;31.73;;;8.60;99.90;;;;;;4975910;28;20106;-62
2021/11/21 00:37:08;;;;;;;43.05;30.10;;;8.50;99.90;;;;;;4993913;28;20049;-62
2021/11/21 00:39:34;;;;;;;43.78;29.13;;;8.50;99.90;;;;;;4994096;28;20471;-62
2021/11/21 00:41:59;;;;;;;49.42;31.50;;;8.50;99.90;;;;;;4993970;28;20038;-62
2021/11/21 00:44:25;;;;;;;44.08;29.52;;;8.50;99.90;;;;;;4993566;28;20101;-62
2021/11/21 00:46:51;;;;;;;44.83;30.50;;;8.50;99.90;;;;;;4993795;28;20034;-62
2021/11/21 00:49:18;;;;;;;41.47;27.42;;;8.50;99.90;;;;;;4994270;28;20027;-62
2021/11/21 00:51:44;;;;;;;37.13;25.38;;;8.50;99.90;;;;;;4993669;28;20029;-62
2021/11/21 00:54:27;;;;;;;43.17;27.15;;;8.60;99.90;;;;;;4993777;28;20033;-63
2021/11/21 00:56:53;;;;;;;42.35;27.17;;;8.60;99.90;;;;;;4992978;28;20073;-62
2021/11/21 00:59:22;;;;;;;45.95;29.38;;;8.60;99.90;;;;;;4993238;28;20026;-62
2021/11/21 01:01:50;;;;;;;46.97;30.42;;;8.60;99.90;;;;;;4993406;28;20531;-62
2021/11/21 01:04:17;;;;;;;42.10;28.77;;;8.50;99.90;;;;;;4991554;28;20022;-62
2021/11/21 01:06:43;;;;;;;42.10;28.08;;;8.60;99.90;;;;;;4993537;28;20018;-62
2021/11/21 01:09:09;;;;;;;43.83;29.38;;;8.60;99.90;;;;;;4993245;28;20025;-63
2021/11/21 01:11:35;;;;;;;41.00;28.17;;;8.60;99.90;;;;;;4993038;28;20050;-62
2021/11/21 01:14:01;;;;;;;40.85;27.33;;;8.50;99.90;;;;;;4997509;28;20030;-62
2021/11/21 01:16:27;;;;;;;43.00;27.55;;;8.60;99.90;;;;;;4988714;28;20092;-62
2021/11/21 01:18:53;;;;;;;43.17;28.90;;;8.60;99.90;;;;;;4985285;28;20030;-62
2021/11/21 01:21:18;;;;;;;46.15;29.35;;;8.60;99.90;;;;;;4987159;28;20029;-63
2021/11/21 01:23:44;;;;;;;47.55;29.02;;;8.60;99.90;;;;;;4977216;28;20038;-62
2021/11/21 01:26:10;;;;;;;43.67;27.63;;;8.60;99.90;;;;;;4979202;28;20065;-62
2021/11/21 01:28:35;;;;;;;41.80;27.38;;;8.60;99.90;;;;;;4992156;28;20460;-62
2021/11/21 01:31:01;;;;;;;43.10;27.88;;;8.60;99.90;;;;;;4973444;28;20034;-62
2021/11/21 01:33:27;;;;;;;42.20;27.83;;;8.60;99.90;;;;;;4987618;28;20049;-63
2021/11/21 01:35:53;;;;;;;44.75;28.60;;;8.60;99.90;;;;;;4985451;28;20061;-62
2021/11/21 01:38:19;;;;;;;43.47;28.23;;;8.60;99.90;;;;;;4987395;28;20054;-62
2021/11/21 01:40:45;;;;;;;41.20;26.25;;;8.60;99.90;;;;;;4975458;28;20386;-62
2021/11/21 01:43:11;;;;;;;38.78;26.23;;;8.60;99.90;;;;;;4977348;28;20556;-62
2021/11/21 01:45:37;;;;;;;42.13;25.85;;;8.70;99.90;;;;;;4991072;28;20037;-62
2021/11/21 01:48:03;;;;;;;43.55;27.30;;;8.70;99.90;;;;;;4986114;28;20395;-62
2021/11/21 01:50:32;;;;;;;38.63;25.23;;;8.70;99.90;;;;;;4986999;28;20506;-62
2021/11/21 01:52:58;;;;;;;42.58;26.45;;;8.70;99.90;;;;;;4989489;28;20383;-62
2021/11/21 01:55:25;;;;;;;42.78;27.75;;;8.70;99.90;;;;;;4972911;28;20027;-63
2021/11/21 01:57:53;;;;;;;46.05;28.45;;;8.70;99.90;;;;;;4965487;28;20684;-62
2021/11/21 02:00:19;;;;;;;43.83;27.60;;;8.70;99.90;;;;;;4985390;28;20058;-62
2021/11/21 02:02:44;;;;;;;42.08;26.88;;;8.70;99.90;;;;;;4973598;28;20437;-62
2021/11/21 02:05:11;;;;;;;43.25;27.95;;;8.70;99.90;;;;;;4987756;28;20178;-62
2021/11/21 02:07:37;;;;;;;48.35;29.60;;;8.70;99.90;;;;;;4985006;28;20394;-62
2021/11/21 02:10:06;;;;;;;41.08;26.42;;;8.70;99.90;;;;;;4988717;28;20038;-62
2021/11/21 02:12:32;;;;;;;43.97;28.48;;;8.70;99.90;;;;;;4986905;28;20041;-62
2021/11/21 02:14:58;;;;;;;45.05;28.08;;;8.70;99.90;;;;;;5011867;28;20018;-62
2021/11/21 02:17:25;;;;;;;43.30;27.65;;;8.70;99.90;;;;;;4994371;28;20124;-62
2021/11/21 02:19:51;;;;;;;43.92;26.85;;;8.70;99.90;;;;;;4995571;28;20385;-62
2021/11/21 02:22:17;;;;;;;42.70;27.60;;;8.70;99.90;;;;;;5009575;28;20022;-62
2021/11/21 02:24:42;;;;;;;40.70;25.35;;;8.60;99.90;;;;;;4994496;28;20044;-62
2021/11/21 02:27:08;;;;;;;45.30;27.77;;;8.70;99.90;;;;;;5011656;28;20382;-62
2021/11/21 02:29:33;;;;;;;47.88;30.42;;;8.70;99.90;;;;;;5011189;28;20436;-62
2021/11/21 02:31:59;;;;;;;41.88;26.83;;;8.60;99.90;;;;;;4993498;28;20478;-62
2021/11/21 02:34:25;;;;;;;45.80;27.73;;;8.60;99.90;;;;;;4994325;28;20481;-62
2021/11/21 02:36:51;;;;;;;50.42;30.77;;;8.60;99.90;;;;;;5011124;28;20541;-62
2021/11/21 02:39:17;;;;;;;48.45;29.65;;;8.70;99.90;;;;;;5011838;28;20381;-62
2021/11/21 02:41:42;;;;;;;48.10;29.35;;;8.60;99.90;;;;;;5011329;28;20499;-63
2021/11/21 02:44:08;;;;;;;53.50;30.77;;;8.60;99.90;;;;;;5011397;28;20065;-62
2021/11/21 02:46:36;;;;;;;51.95;30.38;;;8.70;99.90;;;;;;5011490;28;20109;-63
2021/11/21 02:49:01;;;;;;;44.65;27.08;;;8.60;99.90;;;;;;5011349;28;20062;-62
2021/11/21 02:51:27;;;;;;;44.80;27.35;;;8.60;99.90;;;;;;4993922;28;20045;-62
2021/11/21 02:53:53;;;;;;;41.85;26.02;;;8.70;99.90;;;;;;5010948;28;20611;-62
2021/11/21 02:56:20;;;;;;;43.78;26.50;;;8.70;99.90;;;;;;5010831;28;20033;-62
2021/11/21 02:58:47;;;;;;;43.97;26.33;;;8.70;99.90;;;;;;5027856;23;20054;-64
2021/11/21 03:01:19;;;;;;;43.17;25.42;;;8.70;99.90;;;;;;5017568;28;20029;-64
2021/11/21 03:03:45;;;;;;;46.15;27.25;;;8.70;99.90;;;;;;5011082;28;20038;-64
2021/11/21 03:06:11;;;;;;;49.05;29.33;;;8.70;99.90;;;;;;5011565;28;20112;-64
2021/11/21 03:08:38;;;;;;;49.53;27.92;;;8.70;99.90;;;;;;5011518;28;20025;-64
2021/11/21 03:11:35;;;;;;;51.25;30.70;;;8.70;99.90;;;;;;4993915;28;20478;-64
2021/11/21 03:14:05;;;;;;;46.97;27.73;;;8.70;99.90;;;;;;5008841;28;20122;-64
2021/11/21 03:16:31;;;;;;;46.65;28.23;;;8.70;99.90;;;;;;5006434;28;20013;-64
2021/11/21 03:18:57;;;;;;;44.80;26.90;;;8.70;99.90;;;;;;5011689;28;20026;-64
2021/11/21 03:21:23;;;;;;;45.85;26.00;;;8.70;99.90;;;;;;5017227;28;20494;-64
2021/11/21 03:23:49;;;;;;;41.90;24.67;;;8.80;99.90;;;;;;5011510;28;20038;-64
2021/11/21 03:26:15;;;;;;;45.70;26.50;;;8.70;99.90;;;;;;4994223;28;20022;-64
2021/11/21 03:28:40;;;;;;;50.40;28.52;;;8.70;99.90;;;;;;5011498;28;20505;-64
2021/11/21 03:31:06;;;;;;;44.33;27.25;;;8.70;99.90;;;;;;5011404;28;20026;-64
2021/11/21 03:33:32;;;;;;;43.33;26.42;;;8.80;99.90;;;;;;5011969;28;20022;-64
2021/11/21 03:35:58;;;;;;;47.45;28.30;;;8.80;99.90;;;;;;5011359;28;20097;-64
2021/11/21 03:38:23;;;;;;;43.45;26.55;;;8.80;99.90;;;;;;4993819;28;20018;-64
2021/11/21 03:40:49;;;;;;;45.17;26.75;;;8.80;99.90;;;;;;5011265;28;20712;-64
2021/11/21 03:43:15;;;;;;;45.67;27.08;;;8.80;99.90;;;;;;4991342;28;20022;-64
2021/11/21 03:45:40;;;;;;;43.33;26.58;;;8.80;99.90;;;;;;5011210;28;20107;-64
2021/11/21 03:48:06;;;;;;;47.78;27.83;;;8.80;99.90;;;;;;5011550;28;20037;-64
2021/11/21 03:50:31;;;;;;;48.80;28.15;;;8.80;99.90;;;;;;5011107;28;20018;-64
2021/11/21 03:52:57;;;;;;;47.08;27.13;;;8.80;99.90;;;;;;5011413;28;20056;-64
2021/11/21 03:55:24;;;;;;;47.70;28.23;;;8.80;99.90;;;;;;5011822;28;20363;-64
2021/11/21 03:57:50;;;;;;;48.50;27.77;;;8.80;99.90;;;;;;5011338;28;20046;-64
2021/11/21 04:00:19;;;;;;;46.05;26.40;;;8.80;99.90;;;;;;4996351;28;20022;-65
2021/11/21 04:02:47;;;;;;;44.55;27.45;;;8.80;99.90;;;;;;5015304;28;20057;-65
2021/11/21 04:05:13;;;;;;;47.45;25.95;;;8.80;99.90;;;;;;5014820;28;20033;-65
2021/11/21 04:07:40;;;;;;;43.75;26.20;;;8.80;99.90;;;;;;4981730;28;20022;-65
2021/11/21 04:10:07;;;;;;;46.58;27.08;;;8.80;99.90;;;;;;4983861;28;20450;-65
2021/11/21 04:12:32;;;;;;;51.55;28.60;;;8.80;99.90;;;;;;4997021;28;20025;-65
2021/11/21 04:14:58;;;;;;;47.15;26.83;;;8.90;99.90;;;;;;5014879;28;20022;-65
2021/11/21 04:17:24;;;;;;;48.20;27.00;;;8.90;99.90;;;;;;5014656;28;20037;-65
2021/11/21 04:19:49;;;;;;;50.33;28.70;;;8.90;99.90;;;;;;5014610;28;20500;-65
2021/11/21 04:22:15;;;;;;;50.60;29.10;;;8.90;99.90;;;;;;5014411;28;20037;-64
2021/11/21 04:24:41;;;;;;;54.08;31.40;;;8.90;99.90;;;;;;5014700;28;20025;-64
2021/11/21 04:27:06;;;;;;;49.83;28.90;;;8.90;99.90;;;;;;5014670;28;20022;-64
2021/11/21 04:29:33;;;;;;;50.38;28.92;;;8.90;99.90;;;;;;5014245;28;20037;-65
2021/11/21 04:32:00;;;;;;;55.10;31.63;;;8.90;99.90;;;;;;5014552;28;20018;-65
2021/11/21 04:34:26;;;;;;;52.15;28.52;;;8.90;99.90;;;;;;5014326;28;20478;-64
2021/11/21 04:36:54;;;;;;;47.85;28.13;;;8.90;99.90;;;;;;5014447;28;20100;-64
2021/11/21 04:39:21;;;;;;;55.17;31.40;;;8.90;99.90;;;;;;5014510;28;20157;-65
2021/11/21 04:41:46;;;;;;;55.83;30.83;;;8.90;99.90;;;;;;5014147;28;20437;-64
2021/11/21 04:44:12;;;;;;;53.03;30.10;;;8.90;99.90;;;;;;5014143;28;20025;-64
2021/11/21 04:46:37;;;;;;;52.53;29.90;;;8.90;99.90;;;;;;5014161;28;20386;-64
2021/11/21 04:49:04;;;;;;;49.97;29.02;;;8.90;99.90;;;;;;5014227;28;20049;-64
2021/11/21 04:51:30;;;;;;;50.92;28.90;;;9.00;99.90;;;;;;4993896;28;20030;-64
2021/11/21 04:53:56;;;;;;;52.35;28.60;;;9.00;99.90;;;;;;4980595;28;20018;-64
2021/11/21 04:56:22;;;;;;;45.58;27.30;;;9.00;99.90;;;;;;4996476;28;20018;-64
2021/11/21 04:58:48;;;;;;;53.78;30.05;;;9.00;99.90;;;;;;5014113;28;20068;-64
2021/11/21 05:01:14;;;;;;;47.90;28.27;;;9.00;99.90;;;;;;5013868;28;20062;-64
2021/11/21 05:03:39;;;;;;;50.53;28.67;;;9.00;99.90;;;;;;5013872;28;20080;-64
2021/11/21 05:06:05;;;;;;;42.53;25.15;;;9.10;99.90;;;;;;5013236;28;20026;-64
2021/11/21 05:08:30;;;;;;;45.40;26.25;;;9.10;99.90;;;;;;5013870;28;20072;-64
2021/11/21 05:10:56;;;;;;;45.75;26.05;;;9.10;99.90;;;;;;5009863;28;20026;-64
2021/11/21 05:13:21;;;;;;;41.80;23.35;;;9.10;99.90;;;;;;4980209;28;20030;-64
2021/11/21 05:15:47;;;;;;;46.50;26.17;;;9.10;99.90;;;;;;5013667;28;20018;-64
2021/11/21 05:18:12;;;;;;;44.58;25.88;;;9.20;99.90;;;;;;5013355;28;20080;-64
2021/11/21 05:20:38;;;;;;;41.13;23.98;;;9.20;99.90;;;;;;4982719;28;20142;-64
2021/11/21 05:23:04;;;;;;;39.08;23.92;;;9.20;99.90;;;;;;5013698;28;20387;-64
2021/11/21 05:25:29;;;;;;;48.33;27.27;;;9.20;99.90;;;;;;5013464;28;20386;-64
2021/11/21 05:27:55;;;;;;;42.78;24.67;;;9.20;99.90;;;;;;5013395;28;20029;-64
2021/11/21 05:30:21;;;;;;;40.47;24.38;;;9.20;99.90;;;;;;5014467;28;20028;-65
2021/11/21 05:32:47;;;;;;;40.83;24.17;;;9.20;99.90;;;;;;5012101;28;20092;-64
2021/11/21 05:35:13;;;;;;;36.17;22.45;;;9.20;99.90;;;;;;5013350;28;20022;-64
2021/11/21 05:37:39;;;;;;;34.67;21.70;;;9.30;99.90;;;;;;5013191;28;20029;-64
2021/11/21 05:40:07;;;;;;;37.70;22.75;;;9.30;99.90;;;;;;4981894;28;20022;-65
2021/11/21 05:42:33;;;;;;;35.50;19.88;;;9.30;99.90;;;;;;5013201;28;20025;-64
2021/11/21 05:44:58;;;;;;;30.02;19.20;;;9.30;99.90;;;;;;5013296;28;20482;-65
2021/11/21 05:47:24;;;;;;;29.30;18.65;;;9.30;99.90;;;;;;4990549;28;20022;-64
2021/11/21 05:49:49;;;;;;;32.08;18.63;;;9.30;99.90;;;;;;5012995;28;20105;-64
2021/11/21 05:52:15;;;;;;;27.52;17.90;;;9.30;99.90;;;;;;5013399;28;20050;-64
2021/11/21 05:54:42;;;;;;;25.63;16.00;;;9.40;99.90;;;;;;5013149;28;20107;-65
2021/11/21 05:57:09;;;;;;;26.92;15.73;;;9.40;99.90;;;;;;4989890;28;20589;-64
2021/11/21 05:59:36;;;;;;;26.55;16.40;;;9.40;99.90;;;;;;5013153;28;20014;-64
2021/11/21 06:02:03;;;;;;;23.17;13.40;;;9.40;99.90;;;;;;5012880;28;20429;-64
2021/11/21 06:04:28;;;;;;;20.85;12.98;;;9.40;99.90;;;;;;4981661;28;20367;-64
2021/11/21 06:06:54;;;;;;;21.40;13.60;;;9.40;99.90;;;;;;5011647;28;20029;-64
2021/11/21 06:09:19;;;;;;;19.33;12.23;;;9.40;99.90;;;;;;5012846;28;20018;-64
2021/11/21 06:11:45;;;;;;;17.27;11.23;;;9.40;99.90;;;;;;5012588;28;20562;-64
2021/11/21 06:14:10;;;;;;;15.52;10.55;;;9.50;99.90;;;;;;5012665;28;20030;-64
2021/11/21 06:16:36;;;;;;;16.92;9.80;;;9.50;99.90;;;;;;5009753;28;20018;-64
2021/11/21 06:19:03;;;;;;;16.23;9.90;;;9.50;99.90;;;;;;5012538;28;20020;-64
2021/11/21 06:21:28;;;;;;;13.63;8.52;;;9.50;99.90;;;;;;5012267;28;20025;-64
2021/11/21 06:23:54;;;;;;;16.17;10.48;;;9.50;99.90;;;;;;5012537;28;20439;-64
2021/11/21 06:26:20;;;;;;;16.60;9.95;;;9.50;99.90;;;;;;5013650;28;20036;-64
2021/11/21 06:28:46;;;;;;;17.00;9.85;;;9.50;99.90;;;;;;5013422;28;20038;-64
2021/11/21 06:31:11;;;;;;;14.73;9.73;;;9.50;99.90;;;;;;5013426;28;20075;-64
2021/11/21 06:33:37;;;;;;;15.30;8.98;;;9.50;99.90;;;;;;5013539;28;20025;-64
2021/11/21 06:36:02;;;;;;;13.45;8.95;;;9.50;99.90;;;;;;5013039;28;20105;-64
2021/11/21 06:38:30;;;;;;;14.95;9.18;;;9.50;99.90;;;;;;5013137;28;20449;-64
2021/11/21 06:40:56;;;;;;;13.65;8.80;;;9.50;99.90;;;;;;4995977;28;20076;-64
2021/11/21 06:43:21;;;;;;;14.80;8.32;;;9.50;99.90;;;;;;5013546;28;20033;-64
2021/11/21 06:45:47;;;;;;;12.55;8.27;;;9.50;99.90;;;;;;5013391;28;20061;-64
2021/11/21 06:48:14;;;;;;;13.35;7.53;;;9.50;99.90;;;;;;5013275;28;20460;-64
2021/11/21 06:50:40;;;;;;;14.70;8.25;;;9.50;99.90;;;;;;5013220;28;20382;-64
2021/11/21 06:53:06;;;;;;;12.77;7.72;;;9.50;99.90;;;;;;5013123;28;20026;-64
2021/11/21 06:55:32;;;;;;;12.18;7.78;;;9.60;99.90;;;;;;4995783;28;20359;-64
2021/11/21 06:57:57;;;;;;;12.02;7.78;;;9.60;99.90;;;;;;5012837;28;20042;-64
2021/11/21 07:00:23;;;;;;;11.52;7.00;;;9.50;99.90;;;;;;5012076;28;20021;-64
2021/11/21 07:02:49;;;;;;;10.05;6.57;;;9.50;99.90;;;;;;5013074;28;20022;-64
2021/11/21 07:05:15;;;;;;;10.98;7.30;;;9.60;99.90;;;;;;5013116;28;20030;-64
2021/11/21 07:07:41;;;;;;;11.57;6.70;;;9.50;99.90;;;;;;4997401;28;20081;-64
2021/11/21 07:10:07;;;;;;;10.80;5.88;;;9.50;99.90;;;;;;5011014;28;20036;-64
2021/11/21 07:12:33;;;;;;;10.27;5.53;;;9.50;99.90;;;;;;5012930;28;20018;-64
2021/11/21 07:14:59;;;;;;;8.43;5.00;;;9.60;99.90;;;;;;5013044;28;20039;-64
2021/11/21 07:17:24;;;;;;;8.43;4.97;;;9.50;99.90;;;;;;5012948;28;20479;-64
2021/11/21 07:19:50;;;;;;;6.05;3.72;;;9.60;99.90;;;;;;5012708;28;20044;-64
2021/11/21 07:22:16;;;;;;;6.38;3.88;;;9.60;99.90;;;;;;5012655;28;20018;-64
2021/11/21 07:24:41;;;;;;;7.47;3.97;;;9.50;99.90;;;;;;5011056;28;20465;-64
2021/11/21 07:27:07;;;;;;;6.57;3.97;;;9.60;99.90;;;;;;5011885;28;20404;-64
2021/11/21 07:29:32;;;;;;;6.57;3.90;;;9.60;99.90;;;;;;5010797;28;20029;-64
2021/11/21 07:32:03;;;;;;;6.13;3.08;;;9.60;99.90;;;;;;5011330;28;20034;-64
2021/11/21 07:34:29;;;;;;;5.85;2.88;;;9.60;99.90;;;;;;5014669;28;20573;-64
2021/11/21 07:44:44;;;;;;;5.63;2.75;;;9.60;99.90;;;;;;4972808;28;20422;-64
2021/11/21 07:52:09;;;;;;;5.85;2.83;;;9.50;99.90;;;;;;4917860;29;20058;-64
2021/11/21 07:54:15;;;;;;;;;;;9.60;99.90;;;;;;4856491;29;20081;-65
2021/11/21 07:56:41;;;;;;;4.63;2.85;;;9.50;99.90;;;;;;4927627;29;20009;-64
2021/11/21 07:59:09;;;;;;;9.02;3.13;;;9.50;99.90;;;;;;5031574;28;20037;-65
2021/11/21 08:01:34;;;;;;;6.93;3.53;;;9.50;99.90;;;;;;5004010;28;20021;-64
2021/11/21 08:04:00;;;;;;;6.75;3.78;;;9.60;99.90;;;;;;5014403;28;20025;-64
2021/11/21 08:06:43;;;;;;;6.68;3.22;;;9.60;99.90;;;;;;5012994;28;20355;-64
2021/11/21 08:09:09;;;;;;;8.50;3.63;;;9.60;99.90;;;;;;4979004;28;20046;-64
2021/11/21 08:11:34;;;;;;;6.38;3.38;;;9.60;99.90;;;;;;5011805;28;20022;-64
2021/11/21 08:14:00;;;;;;;6.85;3.42;;;9.70;99.90;;;;;;5013642;28;20026;-64
2021/11/21 08:16:26;;;;;;;7.35;3.65;;;9.70;99.90;;;;;;5011360;28;20462;-64
2021/11/21 08:18:51;;;;;;;6.38;3.78;;;9.70;99.90;;;;;;5011699;28;20022;-65
2021/11/21 08:21:17;;;;;;;6.95;3.80;;;9.80;99.90;;;;;;5014444;28;20029;-64
2021/11/21 08:23:42;;;;;;;8.07;4.32;;;9.80;99.90;;;;;;5014470;28;20022;-65
2021/11/21 08:26:08;;;;;;;7.45;4.38;;;9.80;99.90;;;;;;4998833;28;20494;-65
2021/11/21 08:28:34;;;;;;;10.98;4.65;;;9.90;99.90;;;;;;5001965;28;20026;-65
2021/11/21 08:31:21;;;;;;;6.47;4.10;;;9.90;99.90;;;;;;4994860;28;20038;-65
2021/11/21 08:33:59;;;;;;;6.43;3.20;;;9.90;99.90;;;;;;4994595;28;20023;-64
2021/11/21 08:36:25;;;;;;;5.85;3.05;;;10.00;99.90;;;;;;4995868;28;20033;-65
2021/11/21 08:38:50;;;;;;;5.15;2.40;;;10.00;99.90;;;;;;4995915;28;20022;-65
2021/11/21 08:41:16;;;;;;;4.00;2.35;;;10.10;99.90;;;;;;4995911;28;20023;-65
2021/11/21 08:43:42;;;;;;;4.88;1.90;;;10.10;99.90;;;;;;4995908;28;20030;-65
2021/11/21 08:46:35;;;;;;;5.93;1.95;;;10.20;99.90;;;;;;4995830;28;20498;-65
2021/11/21 08:49:27;;;;;;;3.30;1.13;;;10.20;99.90;;;;;;4995923;28;20495;-64
2021/11/21 08:51:53;;;;;;;5.93;1.23;;;10.30;99.90;;;;;;4997659;28;20478;-65
2021/11/21 08:54:27;;;;;;;5.57;1.23;;;10.30;99.90;;;;;;4996825;28;20037;-65
2021/11/21 08:57:19;;;;;;;2.25;0.82;;;10.30;99.90;;;;;;5012257;28;20490;-64
2021/11/21 08:59:44;;;;;;;3.95;0.90;;;10.40;99.90;;;;;;5011060;28;20465;-64
2021/11/21 09:02:13;;;;;;;4.18;0.98;;;10.40;99.90;;;;;;4994948;28;20134;-65
2021/11/21 09:04:38;;;;;;;3.05;0.80;;;10.40;99.90;;;;;;4994810;28;20109;-64
2021/11/21 09:07:04;;;;;;;6.22;0.90;;;10.50;99.90;;;;;;4995593;28;20177;-64
2021/11/21 09:09:29;;;;;;;3.42;0.82;;;10.50;99.90;;;;;;4995882;28;20498;-64
2021/11/21 09:11:55;;;;;;;1.38;0.50;;;10.50;99.90;;;;;;5012026;28;20034;-64
2021/11/21 09:14:20;;;;;;;2.17;0.85;;;10.50;99.90;;;;;;5009460;28;20026;-64
2021/11/21 09:16:46;;;;;;;3.85;0.73;;;10.60;99.90;;;;;;5014205;28;20529;-65
2021/11/21 09:19:14;;;;;;;3.17;0.70;;;10.60;99.90;;;;;;5014894;28;20058;-65
2021/11/21 09:21:42;;;;;;;5.63;0.70;;;10.60;99.90;;;;;;5014497;28;20457;-64
2021/11/21 09:24:36;;;;;;;6.32;0.85;;;10.60;99.90;;;;;;5013643;28;20388;-64
2021/11/21 09:27:03;;;;;;;2.63;0.50;;;10.60;99.90;;;;;;4996682;28;20047;-64
2021/11/21 09:29:28;;;;;;;5.07;0.52;;;10.60;99.90;;;;;;5014527;28;20036;-64
2021/11/21 09:31:54;;;;;;;2.20;0.40;;;10.60;99.90;;;;;;5014564;28;20030;-64
2021/11/21 09:34:19;;;;;;;3.50;0.60;;;10.60;99.90;;;;;;5013780;28;20036;-64
2021/11/21 09:36:53;;;;;;;4.18;0.73;;;10.60;99.90;;;;;;5014189;28;20037;-65
2021/11/21 09:39:21;;;;;;;6.55;0.60;;;10.60;99.90;;;;;;4996802;28;20109;-64
2021/11/21 09:45:16;;;;;;;2.35;0.50;;;10.70;99.90;;;;;;5005055;28;20505;-64
2021/11/21 09:47:58;;;;;;;3.70;0.50;;;10.70;99.90;;;;;;5014361;28;20033;-64
2021/11/21 09:50:25;;;;;;;3.35;0.60;;;10.70;99.90;;;;;;5013927;28;20034;-64
2021/11/21 09:52:51;;;;;;;2.97;0.43;;;10.70;99.90;;;;;;4996461;28;20034;-65
2021/11/21 09:55:32;;;;;;;;;;;;;;;;;;;;;
2021/11/21 09:57:58;;;;;;;2.75;0.65;;;10.70;99.90;;;;;;5013101;28;20060;-65
2021/11/21 10:00:26;;;;;;;6.50;0.75;;;10.70;99.90;;;;;;5014022;28;20097;-65
2021/11/21 10:03:09;;;;;;;6.57;0.82;;;10.70;99.90;;;;;;4996525;28;20121;-65
2021/11/21 10:05:39;;;;;;;4.00;0.68;;;10.80;99.90;;;;;;5014162;28;20026;-64
2021/11/21 10:08:07;;;;;;;4.97;0.60;;;10.80;99.90;;;;;;4996385;28;20116;-64
2021/11/21 10:11:16;;;;;;;5.20;0.70;;;10.90;99.90;;;;;;5014248;28;20029;-65
2021/11/21 10:13:45;;;;;;;4.43;0.55;;;11.00;99.90;;;;;;4995728;28;20493;-65
2021/11/21 10:16:19;;;;;;;8.63;1.07;;;11.00;99.90;;;;;;4996407;28;20084;-65
2021/11/21 10:18:47;;;;;;;3.60;0.60;;;11.10;99.90;;;;;;5013782;28;20021;-64
2021/11/21 10:21:14;;;;;;;5.95;1.80;;;11.20;99.90;;;;;;5013768;28;20085;-65
2021/11/21 10:23:42;;;;;;;4.45;0.75;;;11.30;99.90;;;;;;5013860;28;20053;-64
2021/11/21 10:26:08;;;;;;;4.38;0.60;;;11.30;99.90;;;;;;5013904;28;20104;-64
2021/11/21 10:28:34;;;;;;;2.33;0.68;;;11.40;99.90;;;;;;5013658;28;20057;-65
2021/11/21 10:31:14;;;;;;;1.58;0.47;;;11.50;99.90;;;;;;5013625;28;20037;-65
2021/11/21 10:33:49;;;;;;;4.90;0.70;;;11.60;99.90;;;;;;4996011;28;20386;-65
2021/11/21 10:36:27;;;;;;;2.58;0.40;;;11.70;99.90;;;;;;5013470;28;20482;-65
2021/11/21 10:39:21;;;;;;;;;;;;;;;;;;;;;
2021/11/21 10:41:51;;;;;;;1.92;0.40;;;12.00;99.90;;;;;;5013330;28;20389;-65
2021/11/21 10:44:20;;;;;;;4.57;1.08;;;12.20;99.90;;;;;;5013319;28;20051;-65
2021/11/21 10:46:48;;;;;;;3.10;0.50;;;12.50;99.90;;;;;;5013388;28;20030;-65
2021/11/21 10:49:39;;;;;;;2.80;0.45;;;12.70;99.90;;;;;;5013368;28;20386;-65
2021/11/21 10:52:18;;;;;;;5.85;0.70;;;12.80;99.90;;;;;;5013416;28;20026;-65
2021/11/21 10:54:52;;;;;;;7.97;0.70;;;13.00;99.80;;;;;;4995382;28;20482;-65
2021/11/21 10:57:29;;;;;;;3.47;0.68;;;13.20;99.70;;;;;;4995559;28;20054;-65
2021/11/21 11:00:06;;;;;;;3.78;0.60;;;13.30;99.20;;;;;;5013222;28;20026;-65
2021/11/21 11:02:42;;;;;;;3.47;0.63;;;13.50;98.90;;;;;;4995512;28;20056;-65
2021/11/21 11:05:18;;;;;;;5.40;0.50;;;13.70;98.70;;;;;;5013060;28;20529;-65
2021/11/21 11:07:46;;;;;;;3.30;0.45;;;14.10;98.30;;;;;;4996974;28;20034;-65
2021/11/21 11:10:24;;;;;;;3.33;0.50;;;14.30;97.80;;;;;;4991881;28;20026;-65
2021/11/21 11:12:56;;;;;;;4.50;0.50;;;14.40;97.30;;;;;;4976243;28;20135;-65
2021/11/21 11:15:37;;;;;;;8.82;0.73;;;14.40;97.00;;;;;;4995074;28;20034;-65
2021/11/21 11:18:04;;;;;;;4.45;0.65;;;14.30;96.80;;;;;;5009968;28;20038;-65
2021/11/21 11:20:29;;;;;;;4.47;0.90;;;14.20;96.60;;;;;;5011914;28;20034;-65
2021/11/21 11:22:58;;;;;;;4.45;0.68;;;14.20;96.50;;;;;;5012712;28;20037;-65
2021/11/21 11:25:30;;;;;;;3.58;0.52;;;14.20;96.30;;;;;;5012815;28;20077;-65
2021/11/21 11:28:11;;;;;;;4.93;0.80;;;14.20;96.00;;;;;;4994852;28;20137;-65
2021/11/21 11:30:47;;;;;;;4.15;0.60;;;14.20;95.90;;;;;;4995062;28;20026;-65
2021/11/21 11:33:43;;;;;;;4.47;0.73;;;14.50;96.00;;;;;;5012988;28;20351;-65
2021/11/21 11:36:39;;;;;;;3.58;0.68;;;15.60;95.20;;;;;;4987344;28;20169;-65
2021/11/21 11:39:17;;;;;;;3.30;0.50;;;17.20;93.80;;;;;;4992290;28;20062;-65
2021/11/21 11:41:59;;;;;;;2.90;0.70;;;17.90;91.80;;;;;;4995023;28;20029;-65
2021/11/21 11:44:24;;;;;;;3.33;0.70;;;18.40;91.00;;;;;;5012770;28;20033;-65
2021/11/21 11:46:50;;;;;;;5.80;0.70;;;19.70;90.00;;;;;;5012521;28;20363;-65
2021/11/21 11:49:35;;;;;;;2.13;0.50;;;21.40;86.30;;;;;;5012062;28;20029;-66
2021/11/21 11:52:15;;;;;;;3.80;0.80;;;23.20;80.30;;;;;;5008280;28;20029;-66
2021/11/21 11:54:42;;;;;;;5.80;1.33;;;24.50;73.00;;;;;;5008320;28;20440;-63
2021/11/21 11:57:09;;;;;;;2.92;0.60;;;24.30;70.20;;;;;;4992406;28;20065;-63
2021/11/21 11:59:47;;;;;;;7.10;0.80;;;23.40;69.30;;;;;;5008553;28;20026;-63
2021/11/21 12:02:32;;;;;;;3.25;0.75;;;22.30;68.90;;;;;;5008268;28;20429;-63
2021/11/21 12:05:15;;;;;;;5.10;1.00;;;21.30;69.70;;;;;;5008107;28;20101;-63
2021/11/21 12:07:43;;;;;;;5.60;0.95;;;20.30;70.70;;;;;;4981011;28;20045;-65
2021/11/21 12:10:19;;;;;;;6.40;0.80;;;19.50;72.00;;;;;;5008223;28;20129;-65
2021/11/21 12:12:53;;;;;;;3.45;0.50;;;19.00;72.30;;;;;;5009211;28;21545;-65
2021/11/21 12:15:50;;;;;;;5.82;1.10;;;18.50;73.00;;;;;;5007594;28;20022;-65
2021/11/21 12:18:53;;;;;;;5.03;0.80;;;18.00;73.70;;;;;;5011816;28;20130;-65
2021/11/21 12:21:37;;;;;;;4.18;0.73;;;17.50;74.10;;;;;;4997593;28;20038;-65
2021/11/21 12:24:43;;;;;;;3.92;0.70;;;17.10;75.00;;;;;;5016052;28;20033;-65
2021/11/21 12:27:26;;;;;;;4.00;0.60;;;16.70;76.00;;;;;;4985926;28;20486;-65
2021/11/21 12:30:08;;;;;;;2.20;0.55;;;16.40;76.60;;;;;;4977580;28;20030;-65
2021/11/21 12:32:44;;;;;;;3.67;0.80;;;16.10;76.90;;;;;;5014102;28;20029;-65
2021/11/21 12:35:23;;;;;;;4.60;0.90;;;15.90;77.40;;;;;;5014020;28;20033;-65
2021/11/21 12:37:50;;;;;;;6.10;1.08;;;15.70;77.90;;;;;;5014065;28;20021;-65
2021/11/21 12:40:17;;;;;;;4.30;0.60;;;15.50;78.20;;;;;;4998238;28;20116;-65
2021/11/21 12:42:54;;;;;;;6.57;1.02;;;15.40;78.50;;;;;;5015361;28;20119;-65
2021/11/21 12:45:22;;;;;;;6.10;0.63;;;15.40;78.30;;;;;;5015749;28;20053;-65
2021/11/21 12:48:42;;;;;;;3.63;0.52;;;15.40;78.20;;;;;;5015548;28;20068;-65
2021/11/21 12:51:56;;;;;;;2.83;0.40;;;15.40;78.20;;;;;;4997261;28;20054;-65
2021/11/21 12:54:27;;;;;;;4.53;1.17;;;15.20;78.50;;;;;;5002888;28;20032;-65
2021/11/21 12:57:14;;;;;;;2.85;0.70;;;15.00;78.70;;;;;;5015250;28;20053;-65
2021/11/21 12:59:58;;;;;;;4.05;1.02;;;14.90;78.40;;;;;;5015472;28;20033;-65
2021/11/21 13:02:27;;;;;;;3.88;0.50;;;14.80;78.90;;;;;;5015260;28;20029;-65
2021/11/21 13:05:01;;;;;;;3.08;0.65;;;14.60;78.90;;;;;;5015355;28;20014;-65
2021/11/21 13:07:36;;;;;;;3.33;0.75;;;15.20;79.10;;;;;;5007369;28;20018;-65
2021/11/21 13:10:13;;;;;;;5.47;0.50;;;15.90;77.60;;;;;;5014263;28;20048;-65
2021/11/21 13:12:42;;;;;;;2.97;0.70;;;17.30;75.40;;;;;;5013513;28;20385;-65